sensor_id;sensor_type;location;lat;lon;timestamp;temperature;humidity
26537;DHT22;14204;51.262;5.488;2024-03-08T00:02:23;6.70;99.90
26537;DHT22;14204;51.262;5.488;2024-03-08T00:04:49;6.60;99.90
26537;DHT22;14204;51.262;5.488;2024-03-08T00:07:16;6.60;99.90
26537;DHT22;14204;51.262;5.488;2024-03-08T00:09:42;6.70;99.90
26537;DHT22;14204;51.262;5.488;2024-03-08T00:12:09;6.70;99.90
26537;DHT22;14204;51.262;5.488;2024-03-08T00:14:35;6.60;99.90
26537;DHT22;14204;51.262;5.488;2024-03-08T00:17:02;6.60;99.90
26537;DHT22;14204;51.262;5.488;2024-03-08T00:19:28;6.50;99.90
26537;DHT22;14204;51.262;5.488;2024-03-08T00:21:54;6.60;99.90
26537;DHT22;14204;51.262;5.488;2024-03-08T00:24:20;6.50;99.90
26537;DHT22;14204;51.262;5.488;2024-03-08T00:26:50;6.40;99.90
26537;DHT22;14204;51.262;5.488;2024-03-08T00:29:16;6.30;99.90
26537;DHT22;14204;51.262;5.488;2024-03-08T00:31:42;6.40;99.90
26537;DHT22;14204;51.262;5.488;2024-03-08T00:34:07;6.40;99.90
26537;DHT22;14204;51.262;5.488;2024-03-08T00:36:35;6.40;99.90
26537;DHT22;14204;51.262;5.488;2024-03-08T00:39:01;6.40;99.90
26537;DHT22;14204;51.262;5.488;2024-03-08T00:41:27;6.50;99.90
26537;DHT22;14204;51.262;5.488;2024-03-08T00:43:53;6.50;99.90
26537;DHT22;14204;51.262;5.488;2024-03-08T00:46:19;6.50;99.90
26537;DHT22;14204;51.262;5.488;2024-03-08T00:48:45;6.40;99.90
26537;DHT22;14204;51.262;5.488;2024-03-08T00:51:10;6.30;99.90
26537;DHT22;14204;51.262;5.488;2024-03-08T00:53:36;6.20;99.90
26537;DHT22;14204;51.262;5.488;2024-03-08T00:56:02;6.20;99.90
26537;DHT22;14204;51.262;5.488;2024-03-08T00:58:29;6.20;99.90
26537;DHT22;14204;51.262;5.488;2024-03-08T01:00:56;6.20;99.90
26537;DHT22;14204;51.262;5.488;2024-03-08T01:03:22;6.20;99.90
26537;DHT22;14204;51.262;5.488;2024-03-08T01:05:48;6.10;99.90
26537;DHT22;14204;51.262;5.488;2024-03-08T01:08:14;6.20;99.90
26537;DHT22;14204;51.262;5.488;2024-03-08T01:10:39;6.20;99.90
26537;DHT22;14204;51.262;5.488;2024-03-08T01:13:05;6.20;99.90
26537;DHT22;14204;51.262;5.488;2024-03-08T01:15:31;6.20;99.90
26537;DHT22;14204;51.262;5.488;2024-03-08T01:17:56;6.10;99.90
26537;DHT22;14204;51.262;5.488;2024-03-08T01:20:22;6.10;99.90
26537;DHT22;14204;51.262;5.488;2024-03-08T01:22:48;6.20;99.90
26537;DHT22;14204;51.262;5.488;2024-03-08T01:25:14;6.00;99.90
26537;DHT22;14204;51.262;5.488;2024-03-08T01:27:39;6.10;99.90
26537;DHT22;14204;51.262;5.488;2024-03-08T01:30:06;6.20;99.90
26537;DHT22;14204;51.262;5.488;2024-03-08T01:32:31;6.10;99.90
26537;DHT22;14204;51.262;5.488;2024-03-08T01:34:57;6.10;99.90
26537;DHT22;14204;51.262;5.488;2024-03-08T01:37:23;6.10;99.90
26537;DHT22;14204;51.262;5.488;2024-03-08T01:39:49;6.10;99.90
26537;DHT22;14204;51.262;5.488;2024-03-08T01:42:15;6.00;99.90
26537;DHT22;14204;51.262;5.488;2024-03-08T01:44:43;6.00;99.90
26537;DHT22;14204;51.262;5.488;2024-03-08T01:47:10;6.10;99.90
26537;DHT22;14204;51.262;5.488;2024-03-08T01:49:37;6.10;99.90
26537;DHT22;14204;51.262;5.488;2024-03-08T01:52:03;6.10;99.90
26537;DHT22;14204;51.262;5.488;2024-03-08T01:54:29;6.00;99.90
26537;DHT22;14204;51.262;5.488;2024-03-08T01:56:56;6.00;99.90
26537;DHT22;14204;51.262;5.488;2024-03-08T01:59:24;6.00;99.90
26537;DHT22;14204;51.262;5.488;2024-03-08T02:01:54;6.00;99.90
26537;DHT22;14204;51.262;5.488;2024-03-08T02:04:20;5.90;99.90
26537;DHT22;14204;51.262;5.488;2024-03-08T02:06:47;5.90;99.90
26537;DHT22;14204;51.262;5.488;2024-03-08T02:09:13;5.90;99.90
26537;DHT22;14204;51.262;5.488;2024-03-08T02:11:41;5.90;99.90
26537;DHT22;14204;51.262;5.488;2024-03-08T02:14:08;5.90;99.90
26537;DHT22;14204;51.262;5.488;2024-03-08T02:16:35;5.80;99.90
26537;DHT22;14204;51.262;5.488;2024-03-08T02:19:00;5.80;99.90
26537;DHT22;14204;51.262;5.488;2024-03-08T02:21:26;5.80;99.90
26537;DHT22;14204;51.262;5.488;2024-03-08T02:23:52;5.70;99.90
26537;DHT22;14204;51.262;5.488;2024-03-08T02:26:18;5.70;99.90
26537;DHT22;14204;51.262;5.488;2024-03-08T02:28:45;5.70;99.90
26537;DHT22;14204;51.262;5.488;2024-03-08T02:31:11;5.70;99.90
26537;DHT22;14204;51.262;5.488;2024-03-08T02:33:37;5.60;99.90
26537;DHT22;14204;51.262;5.488;2024-03-08T02:36:03;5.50;99.90
26537;DHT22;14204;51.262;5.488;2024-03-08T02:38:29;5.60;99.90
26537;DHT22;14204;51.262;5.488;2024-03-08T02:40:55;5.60;99.90
26537;DHT22;14204;51.262;5.488;2024-03-08T02:43:22;5.50;99.90
26537;DHT22;14204;51.262;5.488;2024-03-08T02:45:48;5.40;99.90
26537;DHT22;14204;51.262;5.488;2024-03-08T02:48:14;5.20;99.90
26537;DHT22;14204;51.262;5.488;2024-03-08T02:50:40;5.30;99.90
26537;DHT22;14204;51.262;5.488;2024-03-08T02:53:08;5.30;99.90
26537;DHT22;14204;51.262;5.488;2024-03-08T02:55:34;5.20;99.90
26537;DHT22;14204;51.262;5.488;2024-03-08T02:58:03;5.20;99.90
26537;DHT22;14204;51.262;5.488;2024-03-08T03:00:30;5.20;99.90
26537;DHT22;14204;51.262;5.488;2024-03-08T03:02:59;5.10;99.90
26537;DHT22;14204;51.262;5.488;2024-03-08T03:05:25;5.10;99.90
26537;DHT22;14204;51.262;5.488;2024-03-08T03:07:51;5.00;99.90
26537;DHT22;14204;51.262;5.488;2024-03-08T03:10:17;5.00;99.90
26537;DHT22;14204;51.262;5.488;2024-03-08T03:12:44;5.00;99.90
26537;DHT22;14204;51.262;5.488;2024-03-08T03:15:11;5.10;99.90
26537;DHT22;14204;51.262;5.488;2024-03-08T03:17:37;5.00;99.90
26537;DHT22;14204;51.262;5.488;2024-03-08T03:20:08;5.00;99.90
26537;DHT22;14204;51.262;5.488;2024-03-08T03:22:40;5.00;99.90
26537;DHT22;14204;51.262;5.488;2024-03-08T03:25:07;5.00;99.90
26537;DHT22;14204;51.262;5.488;2024-03-08T03:27:33;5.00;99.90
26537;DHT22;14204;51.262;5.488;2024-03-08T03:29:59;5.00;99.90
26537;DHT22;14204;51.262;5.488;2024-03-08T03:32:44;4.90;99.90
26537;DHT22;14204;51.262;5.488;2024-03-08T03:35:15;4.90;99.90
26537;DHT22;14204;51.262;5.488;2024-03-08T03:37:41;4.90;99.90
26537;DHT22;14204;51.262;5.488;2024-03-08T03:40:17;5.00;99.90
26537;DHT22;14204;51.262;5.488;2024-03-08T03:42:44;5.10;99.90
26537;DHT22;14204;51.262;5.488;2024-03-08T03:45:11;5.10;99.90
26537;DHT22;14204;51.262;5.488;2024-03-08T03:47:37;5.10;99.90
26537;DHT22;14204;51.262;5.488;2024-03-08T03:50:05;5.00;99.90
26537;DHT22;14204;51.262;5.488;2024-03-08T03:52:31;4.90;99.90
26537;DHT22;14204;51.262;5.488;2024-03-08T03:54:57;4.90;99.90
26537;DHT22;14204;51.262;5.488;2024-03-08T03:57:23;4.90;99.90
26537;DHT22;14204;51.262;5.488;2024-03-08T03:59:49;4.90;99.90
26537;DHT22;14204;51.262;5.488;2024-03-08T04:02:17;4.80;99.90
26537;DHT22;14204;51.262;5.488;2024-03-08T04:04:42;4.80;99.90
26537;DHT22;14204;51.262;5.488;2024-03-08T04:07:09;4.80;99.90
26537;DHT22;14204;51.262;5.488;2024-03-08T04:09:36;4.90;99.90
26537;DHT22;14204;51.262;5.488;2024-03-08T04:12:02;4.90;99.90
26537;DHT22;14204;51.262;5.488;2024-03-08T04:14:27;5.00;99.90
26537;DHT22;14204;51.262;5.488;2024-03-08T04:16:53;5.00;99.90
26537;DHT22;14204;51.262;5.488;2024-03-08T04:19:19;5.00;99.90
26537;DHT22;14204;51.262;5.488;2024-03-08T04:21:44;4.90;99.90
26537;DHT22;14204;51.262;5.488;2024-03-08T04:24:10;5.00;99.90
26537;DHT22;14204;51.262;5.488;2024-03-08T04:26:36;4.90;99.90
26537;DHT22;14204;51.262;5.488;2024-03-08T04:29:02;4.90;99.90
26537;DHT22;14204;51.262;5.488;2024-03-08T04:31:28;4.90;99.90
26537;DHT22;14204;51.262;5.488;2024-03-08T04:33:56;4.90;99.90
26537;DHT22;14204;51.262;5.488;2024-03-08T04:36:22;4.80;99.90
26537;DHT22;14204;51.262;5.488;2024-03-08T04:38:48;4.80;99.90
26537;DHT22;14204;51.262;5.488;2024-03-08T04:41:14;4.70;99.90
26537;DHT22;14204;51.262;5.488;2024-03-08T04:43:40;4.70;99.90
26537;DHT22;14204;51.262;5.488;2024-03-08T04:46:06;4.60;99.90
26537;DHT22;14204;51.262;5.488;2024-03-08T04:48:31;4.50;99.90
26537;DHT22;14204;51.262;5.488;2024-03-08T04:50:57;4.50;99.90
26537;DHT22;14204;51.262;5.488;2024-03-08T04:53:23;4.60;99.90
26537;DHT22;14204;51.262;5.488;2024-03-08T04:55:49;4.40;99.90
26537;DHT22;14204;51.262;5.488;2024-03-08T04:58:14;4.40;99.90
26537;DHT22;14204;51.262;5.488;2024-03-08T05:00:40;4.50;99.90
26537;DHT22;14204;51.262;5.488;2024-03-08T05:03:06;4.40;99.90
26537;DHT22;14204;51.262;5.488;2024-03-08T05:05:32;4.40;99.90
26537;DHT22;14204;51.262;5.488;2024-03-08T05:07:58;4.40;99.90
26537;DHT22;14204;51.262;5.488;2024-03-08T05:10:24;4.40;99.90
26537;DHT22;14204;51.262;5.488;2024-03-08T05:12:50;4.40;99.90
26537;DHT22;14204;51.262;5.488;2024-03-08T05:15:15;4.40;99.90
26537;DHT22;14204;51.262;5.488;2024-03-08T05:17:41;4.40;99.90
26537;DHT22;14204;51.262;5.488;2024-03-08T05:20:07;4.40;99.90
26537;DHT22;14204;51.262;5.488;2024-03-08T05:22:36;4.40;99.90
26537;DHT22;14204;51.262;5.488;2024-03-08T05:25:01;4.30;99.90
26537;DHT22;14204;51.262;5.488;2024-03-08T05:27:27;4.30;99.90
26537;DHT22;14204;51.262;5.488;2024-03-08T05:29:53;4.30;99.90
26537;DHT22;14204;51.262;5.488;2024-03-08T05:32:19;4.30;99.90
26537;DHT22;14204;51.262;5.488;2024-03-08T05:34:45;4.20;99.90
26537;DHT22;14204;51.262;5.488;2024-03-08T05:37:11;4.30;99.90
26537;DHT22;14204;51.262;5.488;2024-03-08T05:39:36;4.20;99.90
26537;DHT22;14204;51.262;5.488;2024-03-08T05:42:02;4.20;99.90
26537;DHT22;14204;51.262;5.488;2024-03-08T05:44:28;4.10;99.90
26537;DHT22;14204;51.262;5.488;2024-03-08T05:46:57;4.20;99.90
26537;DHT22;14204;51.262;5.488;2024-03-08T05:49:22;4.10;99.90
26537;DHT22;14204;51.262;5.488;2024-03-08T05:51:50;4.10;99.90
26537;DHT22;14204;51.262;5.488;2024-03-08T05:54:17;4.00;99.90
26537;DHT22;14204;51.262;5.488;2024-03-08T05:56:42;4.10;99.90
26537;DHT22;14204;51.262;5.488;2024-03-08T05:59:10;4.00;99.90
26537;DHT22;14204;51.262;5.488;2024-03-08T06:01:35;4.10;99.90
26537;DHT22;14204;51.262;5.488;2024-03-08T06:04:03;4.10;99.90
26537;DHT22;14204;51.262;5.488;2024-03-08T06:06:29;4.00;99.90
26537;DHT22;14204;51.262;5.488;2024-03-08T06:08:55;4.00;99.90
26537;DHT22;14204;51.262;5.488;2024-03-08T06:11:24;4.10;99.90
26537;DHT22;14204;51.262;5.488;2024-03-08T06:13:52;4.10;99.90
26537;DHT22;14204;51.262;5.488;2024-03-08T06:16:26;4.10;99.90
26537;DHT22;14204;51.262;5.488;2024-03-08T06:18:58;4.10;99.90
26537;DHT22;14204;51.262;5.488;2024-03-08T06:21:24;4.20;99.90
26537;DHT22;14204;51.262;5.488;2024-03-08T06:23:53;4.20;99.90
26537;DHT22;14204;51.262;5.488;2024-03-08T06:26:21;4.20;99.90
26537;DHT22;14204;51.262;5.488;2024-03-08T06:28:47;4.10;99.90
26537;DHT22;14204;51.262;5.488;2024-03-08T06:31:13;4.20;99.90
26537;DHT22;14204;51.262;5.488;2024-03-08T06:33:40;4.20;99.90
26537;DHT22;14204;51.262;5.488;2024-03-08T06:36:06;4.20;99.90
26537;DHT22;14204;51.262;5.488;2024-03-08T06:38:32;4.20;99.90
26537;DHT22;14204;51.262;5.488;2024-03-08T06:40:58;4.20;99.90
26537;DHT22;14204;51.262;5.488;2024-03-08T06:43:24;4.10;99.90
26537;DHT22;14204;51.262;5.488;2024-03-08T06:45:58;4.10;99.90
26537;DHT22;14204;51.262;5.488;2024-03-08T06:48:23;4.10;99.90
26537;DHT22;14204;51.262;5.488;2024-03-08T06:50:49;4.00;99.90
26537;DHT22;14204;51.262;5.488;2024-03-08T06:53:15;4.10;99.90
26537;DHT22;14204;51.262;5.488;2024-03-08T06:55:44;4.00;99.90
26537;DHT22;14204;51.262;5.488;2024-03-08T06:58:10;4.00;99.90
26537;DHT22;14204;51.262;5.488;2024-03-08T07:00:37;4.00;99.90
26537;DHT22;14204;51.262;5.488;2024-03-08T07:03:03;4.10;99.90
26537;DHT22;14204;51.262;5.488;2024-03-08T07:05:32;4.10;99.90
26537;DHT22;14204;51.262;5.488;2024-03-08T07:07:58;4.20;99.90
26537;DHT22;14204;51.262;5.488;2024-03-08T07:10:24;4.10;99.90
26537;DHT22;14204;51.262;5.488;2024-03-08T07:12:51;4.10;99.90
26537;DHT22;14204;51.262;5.488;2024-03-08T07:15:18;4.10;99.90
26537;DHT22;14204;51.262;5.488;2024-03-08T07:17:45;4.20;99.90
26537;DHT22;14204;51.262;5.488;2024-03-08T07:20:12;4.30;99.90
26537;DHT22;14204;51.262;5.488;2024-03-08T07:22:39;4.20;99.90
26537;DHT22;14204;51.262;5.488;2024-03-08T07:25:05;4.40;99.90
26537;DHT22;14204;51.262;5.488;2024-03-08T07:27:53;4.40;99.90
26537;DHT22;14204;51.262;5.488;2024-03-08T07:30:24;4.50;99.90
26537;DHT22;14204;51.262;5.488;2024-03-08T07:33:08;4.60;99.90
26537;DHT22;14204;51.262;5.488;2024-03-08T07:35:37;4.60;99.90
26537;DHT22;14204;51.262;5.488;2024-03-08T07:38:12;4.60;99.90
26537;DHT22;14204;51.262;5.488;2024-03-08T07:40:39;4.60;99.90
26537;DHT22;14204;51.262;5.488;2024-03-08T07:43:09;4.70;99.90
26537;DHT22;14204;51.262;5.488;2024-03-08T07:45:36;4.60;99.90
26537;DHT22;14204;51.262;5.488;2024-03-08T07:48:03;4.60;99.90
26537;DHT22;14204;51.262;5.488;2024-03-08T07:50:29;4.80;99.90
26537;DHT22;14204;51.262;5.488;2024-03-08T07:52:54;4.90;99.90
26537;DHT22;14204;51.262;5.488;2024-03-08T07:55:20;5.00;99.90
26537;DHT22;14204;51.262;5.488;2024-03-08T07:57:49;5.00;99.90
26537;DHT22;14204;51.262;5.488;2024-03-08T08:00:15;5.00;99.90
26537;DHT22;14204;51.262;5.488;2024-03-08T08:02:46;5.10;99.90
26537;DHT22;14204;51.262;5.488;2024-03-08T08:05:12;5.10;99.90
26537;DHT22;14204;51.262;5.488;2024-03-08T08:07:39;5.30;99.90
26537;DHT22;14204;51.262;5.488;2024-03-08T08:10:07;5.40;99.90
26537;DHT22;14204;51.262;5.488;2024-03-08T08:12:32;5.40;99.90
26537;DHT22;14204;51.262;5.488;2024-03-08T08:15:00;5.50;99.90
26537;DHT22;14204;51.262;5.488;2024-03-08T08:17:26;5.50;99.90
26537;DHT22;14204;51.262;5.488;2024-03-08T08:19:51;5.50;99.90
26537;DHT22;14204;51.262;5.488;2024-03-08T08:22:18;5.60;99.90
26537;DHT22;14204;51.262;5.488;2024-03-08T08:24:46;5.70;99.90
26537;DHT22;14204;51.262;5.488;2024-03-08T08:27:12;5.80;99.90
26537;DHT22;14204;51.262;5.488;2024-03-08T08:29:38;6.00;99.90
26537;DHT22;14204;51.262;5.488;2024-03-08T08:32:03;6.10;99.90
26537;DHT22;14204;51.262;5.488;2024-03-08T08:34:29;6.30;99.90
26537;DHT22;14204;51.262;5.488;2024-03-08T08:36:56;6.20;99.90
26537;DHT22;14204;51.262;5.488;2024-03-08T08:39:22;6.30;99.90
26537;DHT22;14204;51.262;5.488;2024-03-08T08:41:48;6.40;99.90
26537;DHT22;14204;51.262;5.488;2024-03-08T08:44:14;6.50;99.90
26537;DHT22;14204;51.262;5.488;2024-03-08T08:46:40;6.40;99.90
26537;DHT22;14204;51.262;5.488;2024-03-08T08:49:06;6.60;99.90
26537;DHT22;14204;51.262;5.488;2024-03-08T08:51:36;6.80;99.90
26537;DHT22;14204;51.262;5.488;2024-03-08T08:54:02;6.90;99.90
26537;DHT22;14204;51.262;5.488;2024-03-08T08:56:28;6.90;99.90
26537;DHT22;14204;51.262;5.488;2024-03-08T08:58:56;7.10;99.90
26537;DHT22;14204;51.262;5.488;2024-03-08T09:01:23;7.20;99.90
26537;DHT22;14204;51.262;5.488;2024-03-08T09:03:49;7.40;99.90
26537;DHT22;14204;51.262;5.488;2024-03-08T09:06:16;7.40;99.90
26537;DHT22;14204;51.262;5.488;2024-03-08T09:08:42;7.40;99.90
26537;DHT22;14204;51.262;5.488;2024-03-08T09:11:09;7.60;99.90
26537;DHT22;14204;51.262;5.488;2024-03-08T09:13:35;7.60;99.90
26537;DHT22;14204;51.262;5.488;2024-03-08T09:16:02;7.80;99.90
26537;DHT22;14204;51.262;5.488;2024-03-08T09:18:31;8.00;99.90
26537;DHT22;14204;51.262;5.488;2024-03-08T09:20:58;8.10;99.90
26537;DHT22;14204;51.262;5.488;2024-03-08T09:23:25;8.20;99.90
26537;DHT22;14204;51.262;5.488;2024-03-08T09:25:51;8.30;99.90
26537;DHT22;14204;51.262;5.488;2024-03-08T09:28:17;8.40;99.90
26537;DHT22;14204;51.262;5.488;2024-03-08T09:30:42;8.70;99.90
26537;DHT22;14204;51.262;5.488;2024-03-08T09:33:10;8.60;99.90
26537;DHT22;14204;51.262;5.488;2024-03-08T09:35:35;8.60;99.90
26537;DHT22;14204;51.262;5.488;2024-03-08T09:38:01;8.70;99.90
26537;DHT22;14204;51.262;5.488;2024-03-08T09:40:27;8.70;99.90
26537;DHT22;14204;51.262;5.488;2024-03-08T09:42:53;8.80;99.90
26537;DHT22;14204;51.262;5.488;2024-03-08T09:45:20;8.90;99.90
26537;DHT22;14204;51.262;5.488;2024-03-08T09:47:50;8.90;99.90
26537;DHT22;14204;51.262;5.488;2024-03-08T09:50:16;9.00;99.90
26537;DHT22;14204;51.262;5.488;2024-03-08T09:52:46;9.20;99.90
26537;DHT22;14204;51.262;5.488;2024-03-08T09:55:13;9.30;99.90
26537;DHT22;14204;51.262;5.488;2024-03-08T09:57:40;9.30;99.90
26537;DHT22;14204;51.262;5.488;2024-03-08T10:00:06;9.50;99.90
26537;DHT22;14204;51.262;5.488;2024-03-08T10:02:50;9.50;99.90
26537;DHT22;14204;51.262;5.488;2024-03-08T10:05:18;9.70;99.90
26537;DHT22;14204;51.262;5.488;2024-03-08T10:07:44;9.80;99.90
26537;DHT22;14204;51.262;5.488;2024-03-08T10:10:10;9.80;99.90
26537;DHT22;14204;51.262;5.488;2024-03-08T10:12:40;9.70;99.90
26537;DHT22;14204;51.262;5.488;2024-03-08T10:15:08;9.90;99.90
26537;DHT22;14204;51.262;5.488;2024-03-08T10:17:36;9.90;99.90
26537;DHT22;14204;51.262;5.488;2024-03-08T10:20:02;10.00;99.90
26537;DHT22;14204;51.262;5.488;2024-03-08T10:22:29;10.00;99.90
26537;DHT22;14204;51.262;5.488;2024-03-08T10:24:55;10.20;99.90
26537;DHT22;14204;51.262;5.488;2024-03-08T10:27:21;10.10;99.90
26537;DHT22;14204;51.262;5.488;2024-03-08T10:29:48;10.20;99.90
26537;DHT22;14204;51.262;5.488;2024-03-08T10:32:13;10.10;99.90
26537;DHT22;14204;51.262;5.488;2024-03-08T10:34:39;10.10;99.90
26537;DHT22;14204;51.262;5.488;2024-03-08T10:37:07;9.90;99.90
26537;DHT22;14204;51.262;5.488;2024-03-08T10:39:41;10.10;99.90
26537;DHT22;14204;51.262;5.488;2024-03-08T10:42:16;10.30;99.90
26537;DHT22;14204;51.262;5.488;2024-03-08T10:44:49;10.50;99.90
26537;DHT22;14204;51.262;5.488;2024-03-08T10:47:26;10.60;99.90
26537;DHT22;14204;51.262;5.488;2024-03-08T10:52:29;10.50;99.90
26537;DHT22;14204;51.262;5.488;2024-03-08T10:54:56;10.50;99.90
26537;DHT22;14204;51.262;5.488;2024-03-08T10:57:22;10.60;99.90
26537;DHT22;14204;51.262;5.488;2024-03-08T10:59:50;10.70;99.90
26537;DHT22;14204;51.262;5.488;2024-03-08T11:02:17;10.90;99.90
26537;DHT22;14204;51.262;5.488;2024-03-08T11:04:48;10.80;99.90
26537;DHT22;14204;51.262;5.488;2024-03-08T11:07:15;10.80;99.90
26537;DHT22;14204;51.262;5.488;2024-03-08T11:09:47;11.10;99.90
26537;DHT22;14204;51.262;5.488;2024-03-08T11:12:27;10.90;99.90
26537;DHT22;14204;51.262;5.488;2024-03-08T11:15:10;11.00;99.90
26537;DHT22;14204;51.262;5.488;2024-03-08T11:20:19;10.80;99.90
26537;DHT22;14204;51.262;5.488;2024-03-08T11:23:00;11.00;99.90
26537;DHT22;14204;51.262;5.488;2024-03-08T11:28:22;11.20;99.90
26537;DHT22;14204;51.262;5.488;2024-03-08T11:33:30;11.30;99.90
26537;DHT22;14204;51.262;5.488;2024-03-08T11:36:12;11.30;99.90
26537;DHT22;14204;51.262;5.488;2024-03-08T11:38:42;11.20;99.90
26537;DHT22;14204;51.262;5.488;2024-03-08T11:41:09;11.20;99.90
26537;DHT22;14204;51.262;5.488;2024-03-08T11:43:40;11.50;99.90
26537;DHT22;14204;51.262;5.488;2024-03-08T11:46:14;11.40;99.90
26537;DHT22;14204;51.262;5.488;2024-03-08T11:48:43;11.50;99.90
26537;DHT22;14204;51.262;5.488;2024-03-08T11:51:13;11.40;99.90
26537;DHT22;14204;51.262;5.488;2024-03-08T11:53:39;11.40;99.90
26537;DHT22;14204;51.262;5.488;2024-03-08T11:56:13;11.70;99.90
26537;DHT22;14204;51.262;5.488;2024-03-08T11:58:40;11.60;99.90
26537;DHT22;14204;51.262;5.488;2024-03-08T12:01:10;11.60;99.90
26537;DHT22;14204;51.262;5.488;2024-03-08T12:03:39;11.70;99.90
26537;DHT22;14204;51.262;5.488;2024-03-08T12:06:08;11.80;99.90
26537;DHT22;14204;51.262;5.488;2024-03-08T12:08:37;11.60;99.90
26537;DHT22;14204;51.262;5.488;2024-03-08T12:11:07;11.50;99.90
26537;DHT22;14204;51.262;5.488;2024-03-08T12:13:33;11.70;99.90
26537;DHT22;14204;51.262;5.488;2024-03-08T12:16:02;11.80;99.90
26537;DHT22;14204;51.262;5.488;2024-03-08T12:18:35;11.80;99.90
26537;DHT22;14204;51.262;5.488;2024-03-08T12:21:08;11.90;99.90
26537;DHT22;14204;51.262;5.488;2024-03-08T12:23:35;11.70;99.90
26537;DHT22;14204;51.262;5.488;2024-03-08T12:26:14;11.90;99.90
26537;DHT22;14204;51.262;5.488;2024-03-08T12:28:41;12.00;99.90
26537;DHT22;14204;51.262;5.488;2024-03-08T12:31:11;12.10;99.90
26537;DHT22;14204;51.262;5.488;2024-03-08T12:33:50;12.00;99.90
26537;DHT22;14204;51.262;5.488;2024-03-08T12:36:16;12.00;99.90
26537;DHT22;14204;51.262;5.488;2024-03-08T12:38:49;12.00;99.90
26537;DHT22;14204;51.262;5.488;2024-03-08T12:41:18;12.00;99.90
26537;DHT22;14204;51.262;5.488;2024-03-08T12:43:48;12.10;99.90
26537;DHT22;14204;51.262;5.488;2024-03-08T12:46:17;12.20;99.90
26537;DHT22;14204;51.262;5.488;2024-03-08T12:48:46;12.10;99.90
26537;DHT22;14204;51.262;5.488;2024-03-08T12:51:16;12.30;99.90
26537;DHT22;14204;51.262;5.488;2024-03-08T12:53:45;12.30;99.90
26537;DHT22;14204;51.262;5.488;2024-03-08T12:56:20;12.30;99.90
26537;DHT22;14204;51.262;5.488;2024-03-08T12:58:53;12.50;99.90
26537;DHT22;14204;51.262;5.488;2024-03-08T13:01:19;12.50;99.90
26537;DHT22;14204;51.262;5.488;2024-03-08T13:03:45;12.40;99.90
26537;DHT22;14204;51.262;5.488;2024-03-08T13:06:12;12.30;99.90
26537;DHT22;14204;51.262;5.488;2024-03-08T13:08:38;12.20;99.90
26537;DHT22;14204;51.262;5.488;2024-03-08T13:11:07;12.10;99.90
26537;DHT22;14204;51.262;5.488;2024-03-08T13:13:33;12.20;99.90
26537;DHT22;14204;51.262;5.488;2024-03-08T13:16:05;12.10;99.90
26537;DHT22;14204;51.262;5.488;2024-03-08T13:18:37;12.00;99.90
26537;DHT22;14204;51.262;5.488;2024-03-08T13:21:03;12.20;99.90
26537;DHT22;14204;51.262;5.488;2024-03-08T13:23:33;12.30;99.90
26537;DHT22;14204;51.262;5.488;2024-03-08T13:26:00;12.30;99.90
26537;DHT22;14204;51.262;5.488;2024-03-08T13:28:26;12.30;99.90
26537;DHT22;14204;51.262;5.488;2024-03-08T13:30:53;12.20;99.90
26537;DHT22;14204;51.262;5.488;2024-03-08T13:33:19;12.20;99.90
26537;DHT22;14204;51.262;5.488;2024-03-08T13:35:46;12.20;99.90
26537;DHT22;14204;51.262;5.488;2024-03-08T13:38:12;12.20;99.90
26537;DHT22;14204;51.262;5.488;2024-03-08T13:40:39;12.20;99.90
26537;DHT22;14204;51.262;5.488;2024-03-08T13:43:06;12.30;99.90
26537;DHT22;14204;51.262;5.488;2024-03-08T13:45:34;12.20;99.90
26537;DHT22;14204;51.262;5.488;2024-03-08T13:48:04;12.30;99.90
26537;DHT22;14204;51.262;5.488;2024-03-08T13:50:30;12.30;99.90
26537;DHT22;14204;51.262;5.488;2024-03-08T13:52:56;12.30;99.90
26537;DHT22;14204;51.262;5.488;2024-03-08T13:55:22;12.30;99.90
26537;DHT22;14204;51.262;5.488;2024-03-08T13:57:49;12.30;99.90
26537;DHT22;14204;51.262;5.488;2024-03-08T14:00:17;12.30;99.90
26537;DHT22;14204;51.262;5.488;2024-03-08T14:02:42;12.10;99.90
26537;DHT22;14204;51.262;5.488;2024-03-08T14:05:09;12.30;99.90
26537;DHT22;14204;51.262;5.488;2024-03-08T14:07:35;12.40;99.90
26537;DHT22;14204;51.262;5.488;2024-03-08T14:10:01;12.40;99.90
26537;DHT22;14204;51.262;5.488;2024-03-08T14:12:27;12.40;99.90
26537;DHT22;14204;51.262;5.488;2024-03-08T14:14:53;12.20;99.90
26537;DHT22;14204;51.262;5.488;2024-03-08T14:17:19;12.40;99.90
26537;DHT22;14204;51.262;5.488;2024-03-08T14:19:45;12.30;99.90
26537;DHT22;14204;51.262;5.488;2024-03-08T14:22:11;12.30;99.90
26537;DHT22;14204;51.262;5.488;2024-03-08T14:24:40;12.30;99.90
26537;DHT22;14204;51.262;5.488;2024-03-08T14:27:08;12.10;99.90
26537;DHT22;14204;51.262;5.488;2024-03-08T14:29:35;12.00;99.90
26537;DHT22;14204;51.262;5.488;2024-03-08T14:32:01;12.10;99.90
26537;DHT22;14204;51.262;5.488;2024-03-08T14:34:29;12.10;99.90
26537;DHT22;14204;51.262;5.488;2024-03-08T14:36:56;12.10;99.90
26537;DHT22;14204;51.262;5.488;2024-03-08T14:39:22;12.10;99.90
26537;DHT22;14204;51.262;5.488;2024-03-08T14:41:55;12.00;99.90
26537;DHT22;14204;51.262;5.488;2024-03-08T14:44:22;12.00;99.90
26537;DHT22;14204;51.262;5.488;2024-03-08T14:46:55;12.00;99.90
26537;DHT22;14204;51.262;5.488;2024-03-08T14:49:22;12.00;99.90
26537;DHT22;14204;51.262;5.488;2024-03-08T14:51:48;12.00;99.90
26537;DHT22;14204;51.262;5.488;2024-03-08T14:54:14;12.10;99.90
26537;DHT22;14204;51.262;5.488;2024-03-08T14:56:40;12.00;99.90
26537;DHT22;14204;51.262;5.488;2024-03-08T14:59:09;11.90;99.90
26537;DHT22;14204;51.262;5.488;2024-03-08T15:01:35;11.80;99.90
26537;DHT22;14204;51.262;5.488;2024-03-08T15:04:04;11.90;99.90
26537;DHT22;14204;51.262;5.488;2024-03-08T15:06:40;11.90;99.90
26537;DHT22;14204;51.262;5.488;2024-03-08T15:09:08;12.00;99.90
26537;DHT22;14204;51.262;5.488;2024-03-08T15:11:38;12.10;99.90
26537;DHT22;14204;51.262;5.488;2024-03-08T15:14:05;12.10;99.90
26537;DHT22;14204;51.262;5.488;2024-03-08T15:16:39;12.00;99.90
26537;DHT22;14204;51.262;5.488;2024-03-08T15:19:06;11.90;99.90
26537;DHT22;14204;51.262;5.488;2024-03-08T15:21:32;12.00;99.90
26537;DHT22;14204;51.262;5.488;2024-03-08T15:24:03;12.00;99.90
26537;DHT22;14204;51.262;5.488;2024-03-08T15:26:29;11.80;99.90
26537;DHT22;14204;51.262;5.488;2024-03-08T15:28:58;11.90;99.90
26537;DHT22;14204;51.262;5.488;2024-03-08T15:31:25;11.90;99.90
26537;DHT22;14204;51.262;5.488;2024-03-08T15:33:51;12.00;99.90
26537;DHT22;14204;51.262;5.488;2024-03-08T15:36:24;11.90;99.90
26537;DHT22;14204;51.262;5.488;2024-03-08T15:38:54;11.80;99.90
26537;DHT22;14204;51.262;5.488;2024-03-08T15:41:19;11.80;99.90
26537;DHT22;14204;51.262;5.488;2024-03-08T15:43:46;11.90;99.90
26537;DHT22;14204;51.262;5.488;2024-03-08T15:46:11;11.90;99.90
26537;DHT22;14204;51.262;5.488;2024-03-08T15:48:39;11.90;99.90
26537;DHT22;14204;51.262;5.488;2024-03-08T15:51:08;11.80;99.90
26537;DHT22;14204;51.262;5.488;2024-03-08T15:53:37;11.80;99.90